Aviation Digital Data Service (ADDS)

Output produced by METARs form (1640 UTC 30 October 2014)
found at http://aviationweather.gov/adds/metars/
 
KISP 301426Z 3014/3112 33009KT P6SM SCT040 
     FM301900 31007KT P6SM SCT040 
     FM310100 34004KT P6SM SCT040 
     FM310900 01004KT P6SM BKN035